Weather at Rantasalmi Airfield

Public forecast

Using degrees Celsius for public forecast. Weather courtesy of forecast.io.

Closest aviation weather report (METAR) to Rantasalmi Airfield

Closest report is Savonlinna Airport, 18.1 nm (33.6 km) ESE.

2024/07/14 16:50 (retrieved 38 minutes ago)

EFSA 141650Z AUTO 09004KT CAVOK 22/15 Q1014

Closest aviation forecast (TAF) to Rantasalmi Airfield

Closest forecast is Kuopio Airport, 58.6 nm (108.5 km) NNW.

2024/07/14 15:42 (retrieved 2 hours ago)

TAF EFKU 141436Z 1415/1515 08009KT 9999 BKN030 PROB30 TEMPO 1418/1424 FEW030CB TEMPO 1500/1506 FEW030CB TEMPO 1506/1515 4000 SHRA BKN013 SCT020CB PROB30 TEMPO 1506/1515 BKN008